createdAt,value
2019-02-21T00:00:24.219Z,12.10
2019-02-21T00:02:50.306Z,12.20
2019-02-21T00:05:18.845Z,11.23
2019-02-21T00:07:47.272Z,12.87
2019-02-21T00:10:15.720Z,13.10
2019-02-21T00:12:44.171Z,12.97
2019-02-21T00:15:12.607Z,14.17
2019-02-21T00:17:41.032Z,12.90
2019-02-21T00:20:09.464Z,12.90
2019-02-21T00:22:37.888Z,12.67
2019-02-21T00:25:06.463Z,14.00
2019-02-21T00:27:34.959Z,14.17
2019-02-21T00:30:03.861Z,13.00
2019-02-21T00:32:32.281Z,12.50
2019-02-21T00:35:00.701Z,12.57
2019-02-21T00:37:29.148Z,15.43
2019-02-21T00:39:57.566Z,13.90
2019-02-21T00:42:26.010Z,15.30
2019-02-21T00:44:54.426Z,15.13
2019-02-21T00:47:22.888Z,14.73
2019-02-21T00:49:51.353Z,13.70
2019-02-21T00:52:19.789Z,13.67
2019-02-21T00:54:48.235Z,16.67
2019-02-21T00:57:16.712Z,15.70
2019-02-21T00:59:45.149Z,15.80
2019-02-21T01:02:13.569Z,14.20
2019-02-21T01:04:42.007Z,15.80
2019-02-21T01:07:10.503Z,14.23
2019-02-21T01:09:38.934Z,15.73
2019-02-21T01:12:07.360Z,16.17
2019-02-21T01:14:35.764Z,15.50
2019-02-21T01:17:04.251Z,14.53
2019-02-21T01:19:32.686Z,14.73
2019-02-21T01:22:01.110Z,14.03
2019-02-21T01:24:29.542Z,14.00
2019-02-21T01:26:57.953Z,14.33
2019-02-21T01:29:26.478Z,13.43
2019-02-21T01:31:54.941Z,14.53
2019-02-21T01:34:23.355Z,14.27
2019-02-21T01:36:51.785Z,14.33
2019-02-21T01:39:20.321Z,14.83
2019-02-21T01:41:48.814Z,14.90
2019-02-21T01:44:17.255Z,15.00
2019-02-21T01:46:45.746Z,14.60
2019-02-21T01:49:14.175Z,15.70
2019-02-21T01:51:42.648Z,16.57
2019-02-21T01:54:11.075Z,15.80
2019-02-21T01:56:39.536Z,13.90
2019-02-21T01:59:08.028Z,15.03
2019-02-21T02:05:06.987Z,14.17
2019-02-21T02:07:35.405Z,14.33
2019-02-21T02:10:04.345Z,14.70
2019-02-21T02:12:32.761Z,14.27
2019-02-21T02:15:01.174Z,13.70
2019-02-21T02:17:29.887Z,14.07
2019-02-21T02:19:58.408Z,14.73
2019-02-21T02:22:26.928Z,13.83
2019-02-21T02:24:55.341Z,12.27
2019-02-21T02:27:23.785Z,13.30
2019-02-21T02:29:52.242Z,13.47
2019-02-21T02:32:20.722Z,12.53
2019-02-21T02:34:49.142Z,12.97
2019-02-21T02:37:17.614Z,13.83
2019-02-21T02:39:46.081Z,12.80
2019-02-21T02:42:14.597Z,12.80
2019-02-21T02:44:43.210Z,13.43
2019-02-21T02:47:11.661Z,13.10
2019-02-21T02:49:40.078Z,13.60
2019-02-21T02:52:08.508Z,13.70
2019-02-21T02:54:36.926Z,13.00
2019-02-21T02:57:05.341Z,13.00
2019-02-21T02:59:40.835Z,13.90
2019-02-21T03:02:03.999Z,14.40
2019-02-21T03:04:32.552Z,13.90
2019-02-21T03:07:01.226Z,15.13
2019-02-21T03:09:29.675Z,16.10
2019-02-21T03:11:58.093Z,15.83
2019-02-21T03:14:26.549Z,18.63
2019-02-21T03:16:54.970Z,19.03
2019-02-21T03:19:23.513Z,19.03
2019-02-21T03:21:51.931Z,20.83
2019-02-21T03:24:20.382Z,21.73
2019-02-21T03:26:48.827Z,19.80
2019-02-21T03:29:17.260Z,20.97
2019-02-21T03:31:54.494Z,21.00
2019-02-21T03:34:15.846Z,21.60
2019-02-21T03:36:44.270Z,20.70
2019-02-21T03:39:12.721Z,22.07
2019-02-21T03:41:41.178Z,21.80
2019-02-21T03:44:09.644Z,20.90
2019-02-21T03:46:38.086Z,21.00
2019-02-21T03:49:06.538Z,18.63
2019-02-21T03:51:35.007Z,21.20
2019-02-21T03:54:03.479Z,20.03
2019-02-21T03:56:31.955Z,21.20
2019-02-21T03:59:00.362Z,21.27
2019-02-21T04:01:28.830Z,19.03
2019-02-21T04:03:57.335Z,18.73
2019-02-21T04:06:25.815Z,19.57
2019-02-21T04:08:54.350Z,20.83
2019-02-21T04:11:22.837Z,19.50
2019-02-21T04:13:51.342Z,19.17
2019-02-21T04:16:19.813Z,19.13
2019-02-21T04:18:48.232Z,21.90
2019-02-21T04:21:16.666Z,20.23
2019-02-21T04:23:45.085Z,17.70
2019-02-21T04:26:13.688Z,19.43
2019-02-21T04:28:42.102Z,20.30
2019-02-21T04:31:10.821Z,18.40
2019-02-21T04:33:39.290Z,20.70
2019-02-21T04:36:07.791Z,18.90
2019-02-21T04:38:36.248Z,17.80
2019-02-21T04:41:04.673Z,18.87
2019-02-21T04:43:33.150Z,17.10
2019-02-21T04:46:01.633Z,17.43
2019-02-21T04:48:30.112Z,18.43
2019-02-21T04:50:58.534Z,18.37
2019-02-21T04:53:27.866Z,17.57
2019-02-21T04:55:56.345Z,19.57
2019-02-21T04:58:24.783Z,19.30
2019-02-21T05:00:53.208Z,18.10
2019-02-21T05:03:21.661Z,16.87
2019-02-21T05:05:50.153Z,17.10
2019-02-21T05:08:18.592Z,18.83
2019-02-21T05:10:47.148Z,17.13
2019-02-21T05:13:15.673Z,17.80
2019-02-21T05:15:44.117Z,18.80
2019-02-21T05:18:12.554Z,18.17
2019-02-21T05:20:40.981Z,18.90
2019-02-21T05:23:09.441Z,18.67
2019-02-21T05:25:37.857Z,17.20
2019-02-21T05:28:24.122Z,17.20
2019-02-21T05:30:54.189Z,18.93
2019-02-21T05:33:40.650Z,19.90
2019-02-21T05:36:13.644Z,18.90
2019-02-21T05:38:49.354Z,17.20
2019-02-21T05:41:22.542Z,19.87
2019-02-21T05:44:07.964Z,18.37
2019-02-21T05:46:40.603Z,17.97
2019-02-21T05:49:19.489Z,20.07
2019-02-21T05:51:52.508Z,18.20
2019-02-21T05:54:31.657Z,18.13
2019-02-21T05:57:01.758Z,15.47
2019-02-21T05:59:40.787Z,18.67
2019-02-21T06:02:10.842Z,15.87
2019-02-21T06:04:43.857Z,17.43
2019-02-21T06:07:13.935Z,16.50
2019-02-21T06:09:53.181Z,17.03
2019-02-21T06:12:33.523Z,16.70
2019-02-21T06:15:10.052Z,17.00
2019-02-21T06:17:55.266Z,15.30
2019-02-21T06:20:40.474Z,14.60
2019-02-21T06:23:13.337Z,16.93
2019-02-21T06:25:54.507Z,15.33
2019-02-21T06:28:21.970Z,16.37
2019-02-21T06:30:54.530Z,15.33
2019-02-21T06:33:22.970Z,16.70
2019-02-21T06:35:51.414Z,16.20
2019-02-21T06:38:19.905Z,18.10
2019-02-21T06:40:48.354Z,16.70
2019-02-21T06:43:16.826Z,15.33
2019-02-21T06:45:45.231Z,17.90
2019-02-21T06:48:13.675Z,16.30
2019-02-21T06:50:42.089Z,15.50
2019-02-21T06:53:10.645Z,15.23
2019-02-21T06:55:39.062Z,17.53
2019-02-21T06:58:07.482Z,16.50
2019-02-21T07:00:35.926Z,14.47
2019-02-21T07:03:15.230Z,16.37
2019-02-21T07:05:36.800Z,13.50
2019-02-21T07:08:04.654Z,15.37
2019-02-21T07:10:33.083Z,14.43
2019-02-21T07:13:01.515Z,17.60
2019-02-21T07:15:29.944Z,14.63
2019-02-21T07:17:58.402Z,16.80
2019-02-21T07:20:26.821Z,15.27
2019-02-21T07:22:55.282Z,16.97
2019-02-21T07:25:41.661Z,16.50
2019-02-21T07:28:12.557Z,16.00
2019-02-21T07:30:42.780Z,16.53
2019-02-21T07:33:10.383Z,14.23
2019-02-21T07:35:38.801Z,15.07
2019-02-21T07:38:07.219Z,15.10
2019-02-21T07:40:36.508Z,15.70
2019-02-21T07:43:04.905Z,15.50
2019-02-21T07:45:36.061Z,15.37
2019-02-21T07:48:03.499Z,13.90
2019-02-21T07:50:32.134Z,14.13
2019-02-21T07:53:02.645Z,13.53
2019-02-21T07:55:30.705Z,14.30
2019-02-21T07:57:59.129Z,13.70
2019-02-21T08:00:27.662Z,13.27
2019-02-21T08:02:56.078Z,12.97
2019-02-21T08:05:24.494Z,15.30
2019-02-21T08:07:52.927Z,15.27
2019-02-21T08:10:32.791Z,13.43
2019-02-21T08:12:53.433Z,13.00
2019-02-21T08:15:21.713Z,12.50
2019-02-21T08:17:50.168Z,13.60
2019-02-21T08:20:18.581Z,13.83
2019-02-21T08:22:47.015Z,13.30
2019-02-21T08:25:15.433Z,10.47
2019-02-21T08:27:43.886Z,12.27
2019-02-21T08:30:14.540Z,11.93
2019-02-21T08:32:59.841Z,12.00
2019-02-21T08:35:28.667Z,12.00
2019-02-21T08:37:57.354Z,12.27
2019-02-21T08:40:25.806Z,12.27
2019-02-21T08:42:54.228Z,14.20
2019-02-21T08:45:22.646Z,13.63
2019-02-21T08:47:51.084Z,13.93
2019-02-21T08:50:22.169Z,15.10
2019-02-21T08:52:49.660Z,15.27
2019-02-21T08:55:18.109Z,15.20
2019-02-21T08:57:46.513Z,16.27
2019-02-21T09:00:16.083Z,15.87
2019-02-21T09:02:44.563Z,17.03
2019-02-21T09:05:13.644Z,16.80
2019-02-21T09:07:42.090Z,16.10
2019-02-21T09:10:13.525Z,16.93
2019-02-21T09:12:41.952Z,15.33
2019-02-21T09:15:15.479Z,15.87
2019-02-21T09:17:43.894Z,14.83
2019-02-21T09:20:12.554Z,15.57
2019-02-21T09:22:40.993Z,15.10
2019-02-21T09:25:13.704Z,14.37
2019-02-21T09:27:42.144Z,12.50
2019-02-21T09:30:18.198Z,13.63
2019-02-21T09:32:46.762Z,11.37
2019-02-21T09:35:15.312Z,11.90
2019-02-21T09:37:43.776Z,12.00
2019-02-21T09:40:15.395Z,13.10
2019-02-21T09:42:43.813Z,12.27
2019-02-21T09:45:18.979Z,11.63
2019-02-21T09:47:47.462Z,11.13
2019-02-21T09:50:15.916Z,11.43
2019-02-21T09:52:44.433Z,11.50
2019-02-21T09:55:17.194Z,13.53
2019-02-21T09:57:45.619Z,11.87
2019-02-21T10:00:16.188Z,12.77
2019-02-21T10:02:44.606Z,14.33
2019-02-21T10:05:13.052Z,13.83
2019-02-21T10:07:41.490Z,13.57
2019-02-21T10:10:19.067Z,13.60
2019-02-21T10:12:47.491Z,15.23
2019-02-21T10:15:16.788Z,16.00
2019-02-21T10:17:45.234Z,14.10
2019-02-21T10:20:19.299Z,14.90
2019-02-21T10:22:47.709Z,15.67
2019-02-21T10:25:24.395Z,13.07
2019-02-21T10:27:53.689Z,14.57
2019-02-21T10:30:23.453Z,16.70
2019-02-21T10:32:51.954Z,15.97
2019-02-21T10:35:20.387Z,17.30
2019-02-21T10:37:48.793Z,17.50
2019-02-21T10:40:17.289Z,16.60
2019-02-21T10:42:45.709Z,17.00
2019-02-21T10:45:16.174Z,16.40
2019-02-21T10:47:44.713Z,17.17
2019-02-21T10:50:15.483Z,16.83
2019-02-21T10:52:43.947Z,19.30
2019-02-21T10:55:12.516Z,17.80
2019-02-21T10:57:41.101Z,15.80
2019-02-21T11:00:26.863Z,17.50
2019-02-21T11:02:55.610Z,18.43
2019-02-21T11:05:24.000Z,17.10
2019-02-21T11:07:52.411Z,17.20
2019-02-21T11:10:23.503Z,17.23
2019-02-21T11:12:52.024Z,18.83
2019-02-21T11:15:22.689Z,21.53
2019-02-21T11:17:51.187Z,19.40
2019-02-21T11:20:20.386Z,18.30
2019-02-21T11:22:49.050Z,18.73
2019-02-21T11:25:17.472Z,17.40
2019-02-21T11:27:45.953Z,17.50
2019-02-21T11:30:16.708Z,18.10
2019-02-21T11:32:45.161Z,18.10
2019-02-21T11:35:14.326Z,17.17
2019-02-21T11:37:46.595Z,18.47
2019-02-21T11:40:17.578Z,19.17
2019-02-21T11:42:46.242Z,17.93
2019-02-21T11:45:17.566Z,20.30
2019-02-21T11:47:46.123Z,18.77
2019-02-21T11:50:19.158Z,18.83
2019-02-21T11:52:48.047Z,18.30
2019-02-21T11:55:21.444Z,19.40
2019-02-21T11:57:49.962Z,20.40
2019-02-21T12:00:20.992Z,20.27
2019-02-21T12:02:49.456Z,20.30
2019-02-21T12:05:27.861Z,20.57
2019-02-21T12:07:48.121Z,20.63
2019-02-21T12:10:16.578Z,17.83
2019-02-21T12:12:45.124Z,19.20
2019-02-21T12:15:14.731Z,18.40
2019-02-21T12:17:43.460Z,19.53
2019-02-21T12:20:19.056Z,19.45
2019-02-21T12:22:47.910Z,19.20
2019-02-21T12:25:18.172Z,20.10
2019-02-21T12:27:46.749Z,19.90
2019-02-21T12:30:17.826Z,19.60
2019-02-21T12:32:46.378Z,21.03
2019-02-21T12:35:15.159Z,19.83
2019-02-21T12:37:43.622Z,20.20
2019-02-21T12:40:17.257Z,18.67
2019-02-21T12:42:45.776Z,18.07
2019-02-21T12:45:16.916Z,18.47
2019-02-21T12:47:50.691Z,18.77
2019-02-21T12:50:15.630Z,19.47
2019-02-21T12:52:44.141Z,20.93
2019-02-21T12:55:13.435Z,20.20
2019-02-21T12:57:42.126Z,20.00
2019-02-21T13:00:20.995Z,20.10
2019-02-21T13:02:49.470Z,20.60
2019-02-21T13:05:18.163Z,19.33
2019-02-21T13:07:46.615Z,18.80
2019-02-21T13:10:20.536Z,19.33
2019-02-21T13:12:49.015Z,19.00
2019-02-21T13:15:17.516Z,19.13
2019-02-21T13:17:45.965Z,19.37
2019-02-21T13:20:15.065Z,18.87
2019-02-21T13:22:43.766Z,18.60
2019-02-21T13:25:14.023Z,19.97
2019-02-21T13:27:42.541Z,18.77
2019-02-21T13:30:13.641Z,17.73
2019-02-21T13:32:42.153Z,17.73
2019-02-21T13:35:11.176Z,18.47
2019-02-21T13:37:39.822Z,18.70
2019-02-21T13:40:11.460Z,19.40
2019-02-21T13:42:39.911Z,16.70
2019-02-21T13:45:10.099Z,21.10
2019-02-21T13:47:39.354Z,19.33
2019-02-21T13:50:10.730Z,19.70
2019-02-21T13:52:39.242Z,17.33
2019-02-21T13:55:08.090Z,19.10
2019-02-21T13:57:36.665Z,21.20
2019-02-21T14:00:11.069Z,17.80
2019-02-21T14:02:39.608Z,17.83
2019-02-21T14:05:08.301Z,18.97
2019-02-21T14:07:37.419Z,18.87
2019-02-21T14:10:08.650Z,18.83
2019-02-21T14:12:37.112Z,18.37
2019-02-21T14:15:14.961Z,18.07
2019-02-21T14:17:43.466Z,18.00
2019-02-21T14:20:11.977Z,18.50
2019-02-21T14:22:40.499Z,16.93
2019-02-21T14:25:10.303Z,19.27
2019-02-21T14:27:39.013Z,19.00
2019-02-21T14:30:12.867Z,18.80
2019-02-21T14:32:41.297Z,18.70
2019-02-21T14:35:12.385Z,18.63
2019-02-21T14:37:40.871Z,18.87
2019-02-21T14:40:11.192Z,18.37
2019-02-21T14:42:39.840Z,19.17
2019-02-21T14:45:13.998Z,19.43
2019-02-21T14:47:42.424Z,17.48
2019-02-21T14:50:12.167Z,17.83
2019-02-21T14:52:40.686Z,17.37
2019-02-21T14:55:11.452Z,17.67
2019-02-21T14:57:41.179Z,20.20
2019-02-21T15:00:18.220Z,18.00
2019-02-21T15:02:46.643Z,18.33
2019-02-21T15:05:15.648Z,16.73
2019-02-21T15:07:45.136Z,16.80
2019-02-21T15:10:14.269Z,16.00
2019-02-21T15:12:42.696Z,17.97
2019-02-21T15:15:25.357Z,16.43
2019-02-21T15:17:53.865Z,17.00
2019-02-21T15:20:22.372Z,17.47
2019-02-21T15:22:53.178Z,18.60
2019-02-21T15:25:21.081Z,18.40
2019-02-21T15:27:49.514Z,18.60
2019-02-21T15:30:25.006Z,17.90
2019-02-21T15:32:53.463Z,18.10
2019-02-21T15:35:21.901Z,19.50
2019-02-21T15:37:50.354Z,17.37
2019-02-21T15:40:18.876Z,18.33
2019-02-21T15:42:47.382Z,17.73
2019-02-21T15:45:23.597Z,20.60
2019-02-21T15:47:49.052Z,20.43
2019-02-21T15:50:19.745Z,18.90
2019-02-21T15:52:48.062Z,19.00
2019-02-21T15:55:18.253Z,18.70
2019-02-21T15:57:46.703Z,18.70
2019-02-21T16:00:17.160Z,18.73
2019-02-21T16:02:46.784Z,19.90
2019-02-21T16:05:15.327Z,19.87
2019-02-21T16:07:43.992Z,19.13
2019-02-21T16:10:15.072Z,19.50
2019-02-21T16:12:44.190Z,20.80
2019-02-21T16:15:16.159Z,22.30
2019-02-21T16:17:44.089Z,20.43
2019-02-21T16:20:20.370Z,21.20
2019-02-21T16:22:48.876Z,21.20
2019-02-21T16:25:25.023Z,23.10
2019-02-21T16:27:55.373Z,21.03
2019-02-21T16:30:24.107Z,19.70
2019-02-21T16:32:52.548Z,22.97
2019-02-21T16:35:21.017Z,22.73
2019-02-21T16:37:49.550Z,20.37
2019-02-21T16:40:21.146Z,20.03
2019-02-21T16:42:49.630Z,20.10
2019-02-21T16:45:19.598Z,21.20
2019-02-21T16:47:48.017Z,22.00
2019-02-21T16:50:16.553Z,20.93
2019-02-21T16:52:45.050Z,21.73
2019-02-21T16:55:21.319Z,20.70
2019-02-21T16:57:49.997Z,19.90
2019-02-21T17:00:19.794Z,20.87
2019-02-21T17:02:48.254Z,20.27
2019-02-21T17:05:16.764Z,21.17
2019-02-21T17:07:45.346Z,20.57
2019-02-21T17:10:15.871Z,20.10
2019-02-21T17:12:44.300Z,20.97
2019-02-21T17:15:14.724Z,17.93
2019-02-21T17:17:43.146Z,18.67
2019-02-21T17:20:14.642Z,19.30
2019-02-21T17:22:43.069Z,19.80
2019-02-21T17:25:13.928Z,21.87
2019-02-21T17:27:42.542Z,16.53
2019-02-21T17:30:13.796Z,18.90
2019-02-21T17:32:42.213Z,15.07
2019-02-21T17:35:10.705Z,14.53
2019-02-21T17:37:39.139Z,13.90
2019-02-21T17:40:10.459Z,13.50
2019-02-21T17:42:38.894Z,10.87
2019-02-21T17:45:08.510Z,12.03
2019-02-21T17:47:36.944Z,11.30
2019-02-21T17:50:08.285Z,10.70
2019-02-21T17:52:36.702Z,11.80
2019-02-21T17:55:07.573Z,10.43
2019-02-21T17:57:37.009Z,12.87
2019-02-21T18:00:24.135Z,13.67
2019-02-21T18:02:52.550Z,13.73
2019-02-21T18:05:21.051Z,12.20
2019-02-21T18:07:49.462Z,12.37
2019-02-21T18:10:18.441Z,11.53
2019-02-21T18:12:46.852Z,12.40
2019-02-21T18:15:16.235Z,10.77
2019-02-21T18:17:44.689Z,9.77
2019-02-21T18:20:14.479Z,9.97
2019-02-21T18:22:42.892Z,9.67
2019-02-21T18:25:22.974Z,9.23
2019-02-21T18:27:51.386Z,9.40
2019-02-21T18:30:19.841Z,9.93
2019-02-21T18:32:48.245Z,9.70
2019-02-21T18:35:16.757Z,10.53
2019-02-21T18:37:47.671Z,10.33
2019-02-21T18:40:20.923Z,11.90
2019-02-21T18:42:49.963Z,10.20
2019-02-21T18:45:18.476Z,11.07
2019-02-21T18:47:46.889Z,11.37
2019-02-21T18:50:15.517Z,12.40
2019-02-21T18:52:44.740Z,12.23
2019-02-21T18:55:13.318Z,14.73
2019-02-21T18:57:41.737Z,13.20
2019-02-21T19:00:16.419Z,15.67
2019-02-21T19:02:44.983Z,14.63
2019-02-21T19:05:13.415Z,14.47
2019-02-21T19:07:41.910Z,17.03
2019-02-21T19:10:16.339Z,16.83
2019-02-21T19:12:44.749Z,18.13
2019-02-21T19:15:14.642Z,18.30
2019-02-21T19:17:43.146Z,19.27
2019-02-21T19:20:14.005Z,17.80
2019-02-21T19:22:42.455Z,21.63
2019-02-21T19:25:11.814Z,21.30
2019-02-21T19:27:40.233Z,21.47
2019-02-21T19:30:17.520Z,20.10
2019-02-21T19:32:45.939Z,21.33
2019-02-21T19:35:14.831Z,22.73
2019-02-21T19:37:43.264Z,20.80
2019-02-21T19:40:12.031Z,22.50
2019-02-21T19:42:40.503Z,21.10
2019-02-21T19:45:09.698Z,24.27
2019-02-21T19:47:38.132Z,25.17
2019-02-21T19:50:08.555Z,24.33
2019-02-21T19:52:37.119Z,26.07
2019-02-21T19:55:10.298Z,26.03
2019-02-21T19:57:38.801Z,25.13
2019-02-21T20:00:13.170Z,28.20
2019-02-21T20:02:41.674Z,26.10
2019-02-21T20:05:10.343Z,29.17
2019-02-21T20:07:38.845Z,31.80
2019-02-21T20:10:08.494Z,31.30
2019-02-21T20:12:37.070Z,32.00
2019-02-21T20:15:08.133Z,34.97
2019-02-21T20:17:36.586Z,37.80
2019-02-21T20:20:17.167Z,44.40
2019-02-21T20:22:45.597Z,38.77
2019-02-21T20:25:14.367Z,35.10
2019-02-21T20:27:43.459Z,37.70
2019-02-21T20:30:16.753Z,34.77
2019-02-21T20:32:45.210Z,36.00
2019-02-21T20:35:13.725Z,38.27
2019-02-21T20:37:42.179Z,44.50
2019-02-21T20:40:11.542Z,39.70
2019-02-21T20:42:39.993Z,42.27
2019-02-21T20:45:10.735Z,44.63
2019-02-21T20:47:39.178Z,46.40
2019-02-21T20:50:10.684Z,44.37
2019-02-21T20:52:39.419Z,46.67
2019-02-21T20:55:09.907Z,42.67
2019-02-21T20:57:38.354Z,46.20
2019-02-21T21:00:17.569Z,41.43
2019-02-21T21:02:46.033Z,41.17
2019-02-21T21:05:14.918Z,40.23
2019-02-21T21:07:43.438Z,40.63
2019-02-21T21:10:15.911Z,42.73
2019-02-21T21:12:44.431Z,49.13
2019-02-21T21:15:14.981Z,47.47
2019-02-21T21:17:44.841Z,52.20
2019-02-21T21:20:16.988Z,47.20
2019-02-21T21:22:44.759Z,50.10
2019-02-21T21:25:17.779Z,47.80
2019-02-21T21:27:46.226Z,46.37
2019-02-21T21:30:18.025Z,46.57
2019-02-21T21:32:46.503Z,46.43
2019-02-21T21:35:14.942Z,43.27
2019-02-21T21:37:43.465Z,47.00
2019-02-21T21:40:14.584Z,43.77
2019-02-21T21:42:43.022Z,46.70
2019-02-21T21:45:14.090Z,46.40
2019-02-21T21:47:42.506Z,46.27
2019-02-21T21:50:13.669Z,44.47
2019-02-21T21:52:42.100Z,43.97
2019-02-21T21:55:10.536Z,43.30
2019-02-21T21:57:39.044Z,41.87
2019-02-21T22:00:10.534Z,39.97
2019-02-21T22:02:38.989Z,40.10
2019-02-21T22:05:09.236Z,41.23
2019-02-21T22:07:37.763Z,40.43
2019-02-21T22:10:13.230Z,38.10
2019-02-21T22:12:41.677Z,40.50
2019-02-21T22:15:12.592Z,39.30
2019-02-21T22:17:42.171Z,36.93
2019-02-21T22:20:10.905Z,36.23
2019-02-21T22:22:39.334Z,36.67
2019-02-21T22:25:10.217Z,36.07
2019-02-21T22:27:39.526Z,37.83
2019-02-21T22:30:11.304Z,35.70
2019-02-21T22:32:39.716Z,34.90
2019-02-21T22:35:08.389Z,38.87
2019-02-21T22:37:36.802Z,33.63
2019-02-21T22:40:08.302Z,36.60
2019-02-21T22:42:36.737Z,34.90
2019-02-21T22:45:06.098Z,35.03
2019-02-21T22:47:34.536Z,35.47
2019-02-21T22:50:03.043Z,29.60
2019-02-21T22:52:31.467Z,31.00
2019-02-21T22:55:09.243Z,28.50
2019-02-21T22:57:30.094Z,30.40
2019-02-21T22:59:58.794Z,28.03
2019-02-21T23:02:27.953Z,28.40
2019-02-21T23:05:14.661Z,27.77
2019-02-21T23:07:43.262Z,27.17
2019-02-21T23:10:11.760Z,26.60
2019-02-21T23:12:40.197Z,24.93
2019-02-21T23:15:08.787Z,24.23
2019-02-21T23:17:37.230Z,23.80
2019-02-21T23:20:06.097Z,22.53
2019-02-21T23:22:34.533Z,22.10
2019-02-21T23:25:03.166Z,22.13
2019-02-21T23:27:31.674Z,22.70
2019-02-21T23:30:00.273Z,20.20
2019-02-21T23:32:28.813Z,18.30
2019-02-21T23:34:57.727Z,19.90
2019-02-21T23:37:26.207Z,18.07
2019-02-21T23:39:54.686Z,16.67
2019-02-21T23:42:23.233Z,18.40
2019-02-21T23:44:51.666Z,17.60
2019-02-21T23:47:20.122Z,16.53
2019-02-21T23:49:48.559Z,16.63
2019-02-21T23:52:17.112Z,16.90
2019-02-21T23:54:45.560Z,15.37
2019-02-21T23:57:13.974Z,15.17
2019-02-21T23:59:42.423Z,14.20
